Time;durP1;ratioP1;P1;durP2;ratioP2;P2;SDS_P1;SDS_P2;PMS_P1;PMS_P2;Temp;Humidity;BMP_temperature;BMP_pressure;BME280_temperature;BME280_humidity;BME280_pressure;Samples;Min_cycle;Max_cycle;Signal;HPM_P1;HPM_P2
2022/07/08 00:02:11;;;;;;;0.00;0.00;;;;;;;;;;5068822;28;20142;-61
2022/07/08 00:04:37;;;;;;;0.00;0.00;;;;;;;;;;5080122;28;20090;-61
2022/07/08 00:07:04;;;;;;;0.00;0.00;;;;;;;;;;5085068;28;20534;-60
2022/07/08 00:09:30;;;;;;;0.00;0.00;;;;;;;;;;5077976;28;20175;-60
2022/07/08 00:11:57;;;;;;;0.00;0.00;;;;;;;;;;5084103;28;20080;-60
2022/07/08 00:14:23;;;;;;;0.00;0.00;;;;;;;;;;5079235;28;20118;-61
2022/07/08 00:16:49;;;;;;;0.00;0.00;;;;;;;;;;5078609;28;20638;-60
2022/07/08 00:19:18;;;;;;;0.00;0.00;;;;;;;;;;5079182;28;20085;-60
2022/07/08 00:21:45;;;;;;;0.00;0.00;;;;;;;;;;5072397;28;20085;-60
2022/07/08 00:24:12;;;;;;;0.00;0.00;;;;;;;;;;5079038;28;20053;-60
2022/07/08 00:26:39;;;;;;;0.00;0.00;;;;;;;;;;5085068;28;20048;-60
2022/07/08 00:29:06;;;;;;;0.00;0.00;;;;;;;;;;5085383;28;20056;-60
2022/07/08 00:31:32;;;;;;;0.00;0.00;;;;;;;;;;5072168;28;20080;-60
2022/07/08 00:33:59;;;;;;;0.00;0.00;;;;;;;;;;5067501;28;20148;-60
2022/07/08 00:36:25;;;;;;;0.00;0.00;;;;;;;;;;5068842;28;20500;-60
2022/07/08 00:38:51;;;;;;;0.00;0.00;;;;;;;;;;5078651;28;20098;-60
2022/07/08 00:41:18;;;;;;;0.00;0.00;;;;;;;;;;5085248;28;20700;-61
2022/07/08 00:43:45;;;;;;;0.00;0.00;;;;;;;;;;5071030;28;20470;-60
2022/07/08 00:46:12;;;;;;;0.00;0.00;;;;;;;;;;5076175;28;20048;-60
2022/07/08 00:48:39;;;;;;;0.00;0.00;;;;;;;;;;5084956;28;20139;-60
2022/07/08 00:51:07;;;;;;;0.00;0.00;;;;;;;;;;5080354;28;20057;-60
2022/07/08 00:53:34;;;;;;;0.00;0.00;;;;;;;;;;5066969;28;20516;-60
2022/07/08 00:56:00;;;;;;;0.00;0.00;;;;;;;;;;5075986;28;20092;-60
2022/07/08 00:58:27;;;;;;;0.00;0.00;;;;;;;;;;5078581;28;20866;-60
2022/07/08 01:00:54;;;;;;;0.00;0.00;;;;;;;;;;5069993;28;20148;-59
2022/07/08 01:03:20;;;;;;;0.00;0.00;;;;;;;;;;5087272;28;20148;-60
2022/07/08 01:05:47;;;;;;;0.00;0.00;;;;;;;;;;5068397;28;20111;-60
2022/07/08 01:08:13;;;;;;;0.00;0.00;;;;;;;;;;5068212;28;20053;-60
2022/07/08 01:10:40;;;;;;;0.00;0.00;;;;;;;;;;5068612;28;20125;-60
2022/07/08 01:13:06;;;;;;;0.00;0.00;;;;;;;;;;5067248;28;20565;-61
2022/07/08 01:15:33;;;;;;;0.22;0.22;;;;;;;;;;5068623;28;20092;-60
2022/07/08 01:17:59;;;;;;;0.00;0.00;;;;;;;;;;5069122;28;20124;-60
2022/07/08 01:20:26;;;;;;;0.00;0.00;;;;;;;;;;5086515;28;20495;-60
2022/07/08 01:22:52;;;;;;;0.00;0.00;;;;;;;;;;5076905;28;20491;-60
2022/07/08 01:25:19;;;;;;;0.00;0.00;;;;;;;;;;5079362;28;20609;-61
2022/07/08 01:27:45;;;;;;;3.92;0.60;;;;;;;;;;5066935;28;20088;-60
2022/07/08 01:30:11;;;;;;;3.72;0.35;;;;;;;;;;5070476;28;20069;-60
2022/07/08 01:32:42;;;;;;;0.00;0.00;;;;;;;;;;5080020;28;20052;-60
2022/07/08 01:35:09;;;;;;;0.00;0.00;;;;;;;;;;5070948;28;20053;-60
2022/07/08 01:37:35;;;;;;;0.00;0.00;;;;;;;;;;5069070;28;20053;-60
2022/07/08 01:40:02;;;;;;;0.00;0.00;;;;;;;;;;5073953;28;20138;-60
2022/07/08 01:42:28;;;;;;;0.00;0.00;;;;;;;;;;5068882;28;20147;-60
2022/07/08 01:44:54;;;;;;;0.00;0.00;;;;;;;;;;5074580;28;20057;-60
2022/07/08 01:47:21;;;;;;;0.00;0.00;;;;;;;;;;5070845;28;20080;-60
2022/07/08 01:49:47;;;;;;;0.00;0.00;;;;;;;;;;5067283;28;20053;-60
2022/07/08 01:52:13;;;;;;;0.00;0.00;;;;;;;;;;5067177;28;20135;-59
2022/07/08 01:54:40;;;;;;;0.00;0.00;;;;;;;;;;5065535;28;20508;-61
2022/07/08 01:57:15;;;;;;;0.00;0.00;;;;;;;;;;5068604;28;20057;-60
2022/07/08 01:59:42;;;;;;;0.00;0.00;;;;;;;;;;5067834;28;20061;-61
2022/07/08 02:02:09;;;;;;;0.00;0.00;;;;;;;;;;5080594;28;20142;-60
2022/07/08 02:04:36;;;;;;;0.00;0.00;;;;;;;;;;5083499;28;20053;-60
2022/07/08 02:07:03;;;;;;;0.32;0.30;;;;;;;;;;5083754;28;20150;-61
2022/07/08 02:09:29;;;;;;;0.00;0.00;;;;;;;;;;5090623;28;20048;-61
2022/07/08 02:14:41;;;;;;;0.00;0.00;;;;;;;;;;5083081;28;20561;-60
2022/07/08 02:17:08;;;;;;;0.00;0.00;;;;;;;;;;5079474;28;20056;-60
2022/07/08 02:19:35;;;;;;;0.00;0.00;;;;;;;;;;5087281;28;20057;-60
2022/07/08 02:22:02;;;;;;;0.00;0.00;;;;;;;;;;5086514;28;20049;-60
2022/07/08 02:24:28;;;;;;;0.00;0.00;;;;;;;;;;5077609;28;21320;-59
2022/07/08 02:26:54;;;;;;;0.00;0.00;;;;;;;;;;5088692;28;20052;-60
2022/07/08 02:29:21;;;;;;;0.00;0.00;;;;;;;;;;5082421;28;20182;-60
2022/07/08 02:31:47;;;;;;;0.00;0.00;;;;;;;;;;5071825;28;20053;-60
2022/07/08 02:34:14;;;;;;;0.00;0.00;;;;;;;;;;5076297;28;20053;-61
2022/07/08 02:36:40;;;;;;;0.00;0.00;;;;;;;;;;5073056;28;20103;-60
2022/07/08 02:39:06;;;;;;;0.00;0.00;;;;;;;;;;5070119;28;20170;-60
2022/07/08 02:41:33;;;;;;;0.00;0.00;;;;;;;;;;5073965;28;20904;-60
2022/07/08 02:43:59;;;;;;;0.00;0.00;;;;;;;;;;5072422;28;20053;-60
2022/07/08 02:46:25;;;;;;;0.00;0.00;;;;;;;;;;5077536;28;20088;-60
2022/07/08 02:48:53;;;;;;;0.00;0.00;;;;;;;;;;5070263;28;20049;-59
2022/07/08 02:51:20;;;;;;;0.00;0.00;;;;;;;;;;5088408;28;20082;-60
2022/07/08 02:53:46;;;;;;;0.00;0.00;;;;;;;;;;5076455;28;20088;-60
2022/07/08 02:56:12;;;;;;;0.00;0.00;;;;;;;;;;5082118;28;20590;-60
2022/07/08 02:58:39;;;;;;;0.00;0.00;;;;;;;;;;5071106;28;20659;-61
2022/07/08 03:01:05;;;;;;;0.00;0.00;;;;;;;;;;5078296;28;20174;-61
2022/07/08 03:03:32;;;;;;;0.00;0.00;;;;;;;;;;5076559;28;20049;-61
2022/07/08 03:05:58;;;;;;;0.00;0.00;;;;;;;;;;5084776;28;20088;-60
2022/07/08 03:08:24;;;;;;;0.00;0.00;;;;;;;;;;5089537;28;20114;-60
2022/07/08 03:10:51;;;;;;;0.00;0.00;;;;;;;;;;5074079;28;20063;-61
2022/07/08 03:13:18;;;;;;;0.00;0.00;;;;;;;;;;5079409;28;20592;-60
2022/07/08 03:15:44;;;;;;;0.00;0.00;;;;;;;;;;5079536;28;20122;-60
2022/07/08 03:18:10;;;;;;;0.00;0.00;;;;;;;;;;5078287;28;20579;-60
2022/07/08 03:20:37;;;;;;;0.00;0.00;;;;;;;;;;5075892;28;20045;-60
2022/07/08 03:23:03;;;;;;;0.00;0.00;;;;;;;;;;5076437;28;20045;-60
2022/07/08 03:25:30;;;;;;;0.00;0.00;;;;;;;;;;5087823;28;20057;-60
2022/07/08 03:27:56;;;;;;;0.00;0.00;;;;;;;;;;5088888;28;20060;-60
2022/07/08 03:30:22;;;;;;;0.00;0.00;;;;;;;;;;5073899;28;20076;-60
2022/07/08 03:32:49;;;;;;;0.00;0.00;;;;;;;;;;5067450;28;20095;-60
2022/07/08 03:35:15;;;;;;;0.00;0.00;;;;;;;;;;5077012;28;20060;-60
2022/07/08 03:37:42;;;;;;;0.00;0.00;;;;;;;;;;5073419;28;20044;-61
2022/07/08 03:42:55;;;;;;;0.00;0.00;;;;;;;;;;5072524;28;20296;-60
2022/07/08 03:45:21;;;;;;;0.00;0.00;;;;;;;;;;5079476;28;20569;-60
2022/07/08 03:47:47;;;;;;;0.00;0.00;;;;;;;;;;5069001;28;20523;-60
2022/07/08 03:50:14;;;;;;;0.00;0.00;;;;;;;;;;5076643;28;20835;-61
2022/07/08 03:52:40;;;;;;;0.00;0.00;;;;;;;;;;5070128;28;20495;-60
2022/07/08 03:55:07;;;;;;;0.00;0.00;;;;;;;;;;5078179;28;20103;-60
2022/07/08 03:57:33;;;;;;;0.00;0.00;;;;;;;;;;5069925;28;20048;-60
2022/07/08 04:00:00;;;;;;;0.00;0.00;;;;;;;;;;5084643;28;20564;-60
2022/07/08 04:02:26;;;;;;;0.00;0.00;;;;;;;;;;5079536;28;20059;-60
2022/07/08 04:04:53;;;;;;;0.00;0.00;;;;;;;;;;5080537;28;20107;-60
2022/07/08 04:07:19;;;;;;;0.00;0.00;;;;;;;;;;5069838;28;20488;-61
2022/07/08 04:09:45;;;;;;;0.00;0.00;;;;;;;;;;5084295;28;20479;-60
2022/07/08 04:12:12;;;;;;;0.00;0.00;;;;;;;;;;5068878;28;20601;-60
2022/07/08 04:14:38;;;;;;;0.00;0.00;;;;;;;;;;5085427;28;20056;-60
2022/07/08 04:17:05;;;;;;;0.00;0.00;;;;;;;;;;5086326;28;20114;-61
2022/07/08 04:19:31;;;;;;;0.00;0.00;;;;;;;;;;5081877;28;20076;-61
2022/07/08 04:21:57;;;;;;;0.00;0.00;;;;;;;;;;5082826;28;20061;-61
2022/07/08 04:24:24;;;;;;;0.00;0.00;;;;;;;;;;5086763;28;20591;-61
2022/07/08 04:26:50;;;;;;;0.00;0.00;;;;;;;;;;5069913;28;20115;-60
2022/07/08 04:29:16;;;;;;;0.00;0.00;;;;;;;;;;5084818;28;20049;-60
2022/07/08 04:31:43;;;;;;;0.00;0.00;;;;;;;;;;5087673;28;20052;-60
2022/07/08 04:34:09;;;;;;;0.00;0.00;;;;;;;;;;5068227;28;20056;-60
2022/07/08 04:36:36;;;;;;;0.00;0.00;;;;;;;;;;5069066;28;20550;-60
2022/07/08 04:39:02;;;;;;;0.00;0.00;;;;;;;;;;5069854;28;20068;-60
2022/07/08 04:41:29;;;;;;;0.00;0.00;;;;;;;;;;5068227;28;20095;-60
2022/07/08 04:43:55;;;;;;;0.00;0.00;;;;;;;;;;5068185;28;20049;-60
2022/07/08 04:46:21;;;;;;;0.00;0.00;;;;;;;;;;5068302;28;20199;-60
2022/07/08 04:48:48;;;;;;;0.00;0.00;;;;;;;;;;5068779;28;20052;-60
2022/07/08 04:51:14;;;;;;;0.00;0.00;;;;;;;;;;5073886;28;20110;-60
2022/07/08 04:53:40;;;;;;;0.00;0.00;;;;;;;;;;5080989;28;20076;-60
2022/07/08 04:56:07;;;;;;;0.00;0.00;;;;;;;;;;5089186;28;20086;-60
2022/07/08 04:58:33;;;;;;;0.00;0.00;;;;;;;;;;5088402;28;20859;-60
2022/07/08 05:00:59;;;;;;;0.05;0.05;;;;;;;;;;5089620;28;20052;-60
2022/07/08 05:03:26;;;;;;;0.00;0.00;;;;;;;;;;5081987;28;20079;-60
2022/07/08 05:05:59;;;;;;;0.00;0.00;;;;;;;;;;5089355;28;20052;-60
2022/07/08 05:08:25;;;;;;;0.00;0.00;;;;;;;;;;5089249;28;20110;-60
2022/07/08 05:10:52;;;;;;;0.00;0.00;;;;;;;;;;5073958;28;20060;-60
2022/07/08 05:13:18;;;;;;;0.00;0.00;;;;;;;;;;5076426;28;20718;-60
2022/07/08 05:15:45;;;;;;;0.00;0.00;;;;;;;;;;5076128;28;20053;-60
2022/07/08 05:18:11;;;;;;;0.00;0.00;;;;;;;;;;5080162;28;20061;-60
2022/07/08 05:20:38;;;;;;;0.00;0.00;;;;;;;;;;5072015;28;20079;-60
2022/07/08 05:23:04;;;;;;;0.00;0.00;;;;;;;;;;5070221;28;20101;-60
2022/07/08 05:25:30;;;;;;;0.00;0.00;;;;;;;;;;5072247;28;20092;-60
2022/07/08 05:27:57;;;;;;;0.00;0.00;;;;;;;;;;5080752;28;20045;-61
2022/07/08 05:30:23;;;;;;;0.00;0.00;;;;;;;;;;5077438;28;20089;-60
2022/07/08 05:32:49;;;;;;;0.00;0.00;;;;;;;;;;5073689;28;20055;-61
2022/07/08 05:35:16;;;;;;;0.00;0.00;;;;;;;;;;5081797;28;20056;-60
2022/07/08 05:37:42;;;;;;;0.10;0.00;;;;;;;;;;5079914;28;20061;-60
2022/07/08 05:40:09;;;;;;;0.00;0.00;;;;;;;;;;5079137;28;20053;-59
2022/07/08 05:42:36;;;;;;;0.00;0.00;;;;;;;;;;5073623;28;20057;-58
2022/07/08 05:45:03;;;;;;;0.00;0.00;;;;;;;;;;5072832;28;20115;-58
2022/07/08 05:47:29;;;;;;;0.00;0.00;;;;;;;;;;5078493;28;20568;-58
2022/07/08 05:49:55;;;;;;;0.00;0.00;;;;;;;;;;5081160;28;20523;-58
2022/07/08 05:52:22;;;;;;;0.00;0.00;;;;;;;;;;5072442;28;20061;-59
2022/07/08 05:54:48;;;;;;;0.00;0.00;;;;;;;;;;5072239;28;20103;-59
2022/07/08 05:57:15;;;;;;;0.00;0.00;;;;;;;;;;5072269;28;20049;-60
2022/07/08 05:59:42;;;;;;;0.00;0.00;;;;;;;;;;5075915;28;20084;-61
2022/07/08 06:02:08;;;;;;;0.00;0.00;;;;;;;;;;5092380;28;20044;-60
2022/07/08 06:04:35;;;;;;;0.00;0.00;;;;;;;;;;5084006;28;20062;-59
2022/07/08 06:07:02;;;;;;;0.00;0.00;;;;;;;;;;5083455;28;20049;-61
2022/07/08 06:09:28;;;;;;;0.00;0.00;;;;;;;;;;5072584;28;20088;-61
2022/07/08 06:11:54;;;;;;;0.00;0.00;;;;;;;;;;5071700;28;20103;-61
2022/07/08 06:14:21;;;;;;;0.00;0.00;;;;;;;;;;5072122;28;20053;-61
2022/07/08 06:16:48;;;;;;;0.00;0.00;;;;;;;;;;5090695;28;20102;-61
2022/07/08 06:19:15;;;;;;;0.00;0.00;;;;;;;;;;5086844;28;20138;-66
2022/07/08 06:21:41;;;;;;;0.00;0.00;;;;;;;;;;5084208;28;20110;-63
2022/07/08 06:24:08;;;;;;;0.00;0.00;;;;;;;;;;5087417;28;20087;-61
2022/07/08 06:26:34;;;;;;;0.00;0.00;;;;;;;;;;5087656;28;20142;-60
2022/07/08 06:29:01;;;;;;;0.00;0.00;;;;;;;;;;5091863;28;20084;-59
2022/07/08 06:31:27;;;;;;;0.00;0.00;;;;;;;;;;5072121;28;20084;-59
2022/07/08 06:33:56;;;;;;;0.00;0.00;;;;;;;;;;5077497;28;20423;-60
2022/07/08 06:36:24;;;;;;;0.00;0.00;;;;;;;;;;5079211;28;20049;-60
2022/07/08 06:38:51;;;;;;;0.00;0.00;;;;;;;;;;5090293;28;20127;-59
2022/07/08 06:41:17;;;;;;;0.10;0.03;;;;;;;;;;5074744;28;20577;-60
2022/07/08 06:43:44;;;;;;;0.00;0.00;;;;;;;;;;5071240;28;20924;-59
2022/07/08 06:46:10;;;;;;;0.00;0.00;;;;;;;;;;5069789;28;20081;-59
2022/07/08 06:48:37;;;;;;;0.00;0.00;;;;;;;;;;5070589;28;20056;-59
2022/07/08 06:51:03;;;;;;;0.00;0.00;;;;;;;;;;5087657;28;20053;-59
2022/07/08 06:54:34;;;;;;;0.00;0.00;;;;;;;;;;5091239;28;20052;-59
2022/07/08 06:56:16;;;;;;;0.00;0.00;;;;;;;;;;5091742;28;20114;-59
2022/07/08 06:58:42;;;;;;;0.00;0.00;;;;;;;;;;5091567;28;20106;-59
2022/07/08 07:01:09;;;;;;;0.00;0.00;;;;;;;;;;5081196;28;20396;-59
2022/07/08 07:03:36;;;;;;;0.00;0.00;;;;;;;;;;5090949;28;20061;-59
2022/07/08 07:06:02;;;;;;;0.00;0.00;;;;;;;;;;5091529;28;20045;-59
2022/07/08 07:08:29;;;;;;;0.00;0.00;;;;;;;;;;5090534;28;20552;-59
2022/07/08 07:10:56;;;;;;;0.00;0.00;;;;;;;;;;5074349;28;20057;-59
2022/07/08 07:13:22;;;;;;;0.00;0.00;;;;;;;;;;5070073;28;20084;-59
2022/07/08 07:15:49;;;;;;;0.00;0.00;;;;;;;;;;5070382;28;20565;-59
2022/07/08 07:18:15;;;;;;;0.00;0.00;;;;;;;;;;5082242;28;20057;-59
2022/07/08 07:20:42;;;;;;;0.00;0.00;;;;;;;;;;5080320;28;20090;-59
2022/07/08 07:23:08;;;;;;;0.00;0.00;;;;;;;;;;5090512;28;20139;-59
2022/07/08 07:25:34;;;;;;;0.00;0.00;;;;;;;;;;5089843;28;20929;-59
2022/07/08 07:28:01;;;;;;;0.00;0.00;;;;;;;;;;5090405;28;20550;-59
2022/07/08 07:30:27;;;;;;;0.00;0.00;;;;;;;;;;5078052;28;20056;-59
2022/07/08 07:32:53;;;;;;;0.00;0.00;;;;;;;;;;5070253;28;20053;-59
2022/07/08 07:35:20;;;;;;;0.00;0.00;;;;;;;;;;5071564;28;20130;-59
2022/07/08 07:37:47;;;;;;;0.00;0.00;;;;;;;;;;5069044;28;20081;-59
2022/07/08 07:40:13;;;;;;;0.00;0.00;;;;;;;;;;5076197;28;20061;-59
2022/07/08 07:42:40;;;;;;;0.00;0.00;;;;;;;;;;5069454;28;20057;-59
2022/07/08 07:45:06;;;;;;;0.00;0.00;;;;;;;;;;5070234;28;20048;-59
2022/07/08 07:47:33;;;;;;;0.00;0.00;;;;;;;;;;5069147;28;20123;-59
2022/07/08 07:49:59;;;;;;;0.00;0.00;;;;;;;;;;5081845;28;20115;-59
2022/07/08 07:52:26;;;;;;;0.00;0.00;;;;;;;;;;5090119;28;20056;-59
2022/07/08 07:54:52;;;;;;;0.00;0.00;;;;;;;;;;5089931;28;20110;-59
2022/07/08 07:57:18;;;;;;;0.00;0.00;;;;;;;;;;5090033;28;20098;-59
2022/07/08 07:59:45;;;;;;;0.00;0.00;;;;;;;;;;5082361;28;20594;-59
2022/07/08 08:02:11;;;;;;;0.00;0.00;;;;;;;;;;5068709;28;20529;-59
2022/07/08 08:04:38;;;;;;;0.00;0.00;;;;;;;;;;5069669;28;20065;-59
2022/07/08 08:07:04;;;;;;;0.00;0.00;;;;;;;;;;5069849;28;20053;-59
2022/07/08 08:09:31;;;;;;;0.00;0.00;;;;;;;;;;5069070;28;20439;-59
2022/07/08 08:11:57;;;;;;;0.00;0.00;;;;;;;;;;5070127;28;20584;-59
2022/07/08 08:14:23;;;;;;;0.00;0.00;;;;;;;;;;5087769;28;20600;-59
2022/07/08 08:16:49;;;;;;;0.00;0.00;;;;;;;;;;5089597;28;20107;-59
2022/07/08 08:19:16;;;;;;;0.00;0.00;;;;;;;;;;5089069;28;20079;-60
2022/07/08 08:21:42;;;;;;;0.00;0.00;;;;;;;;;;5070767;28;20053;-60
2022/07/08 08:24:09;;;;;;;0.00;0.00;;;;;;;;;;5070116;28;20049;-61
2022/07/08 08:26:35;;;;;;;0.00;0.00;;;;;;;;;;5068886;28;20107;-61
2022/07/08 08:29:02;;;;;;;0.00;0.00;;;;;;;;;;5069466;28;20065;-61
2022/07/08 08:31:28;;;;;;;0.00;0.00;;;;;;;;;;5070874;28;20123;-60
2022/07/08 08:33:55;;;;;;;0.00;0.00;;;;;;;;;;5069512;28;20053;-60
2022/07/08 08:36:23;;;;;;;0.00;0.00;;;;;;;;;;5069277;28;20061;-60
2022/07/08 08:38:50;;;;;;;0.00;0.00;;;;;;;;;;5069610;28;20978;-60
2022/07/08 08:41:16;;;;;;;0.00;0.00;;;;;;;;;;5082534;28;20114;-61
2022/07/08 08:43:42;;;;;;;0.00;0.00;;;;;;;;;;5089499;28;20071;-61
2022/07/08 08:46:10;;;;;;;0.00;0.00;;;;;;;;;;5089811;28;20053;-61
2022/07/08 08:48:38;;;;;;;0.00;0.00;;;;;;;;;;5089301;28;20068;-60
2022/07/08 08:51:08;;;;;;;0.00;0.00;;;;;;;;;;5086083;28;20057;-59
2022/07/08 08:53:42;;;;;;;0.00;0.00;;;;;;;;;;5074896;28;20508;-60
2022/07/08 08:56:09;;;;;;;0.00;0.00;;;;;;;;;;5071609;28;20519;-60
2022/07/08 08:58:37;;;;;;;0.00;0.00;;;;;;;;;;5083285;28;20053;-59
2022/07/08 09:01:05;;;;;;;0.00;0.00;;;;;;;;;;5089863;28;20056;-59
2022/07/08 09:03:31;;;;;;;;;;;;;;;;;;5077378;28;20507;-59
2022/07/08 09:05:59;;;;;;;0.00;0.00;;;;;;;;;;5070079;28;44587;-60
2022/07/08 09:08:25;;;;;;;0.00;0.00;;;;;;;;;;5068429;28;20056;-60
2022/07/08 09:10:52;;;;;;;0.00;0.00;;;;;;;;;;5069409;28;20052;-60
2022/07/08 09:13:21;;;;;;;0.00;0.00;;;;;;;;;;5067917;28;20057;-60
2022/07/08 09:15:49;;;;;;;0.00;0.00;;;;;;;;;;5068784;28;20079;-60
2022/07/08 09:18:16;;;;;;;0.00;0.00;;;;;;;;;;5068663;28;20107;-60
2022/07/08 09:20:44;;;;;;;0.17;0.05;;;;;;;;;;5068671;28;20053;-60
2022/07/08 09:23:11;;;;;;;0.00;0.00;;;;;;;;;;5068833;28;20049;-60
2022/07/08 09:25:38;;;;;;;0.00;0.00;;;;;;;;;;5068892;28;20081;-59
2022/07/08 09:28:04;;;;;;;0.00;0.00;;;;;;;;;;5068978;28;20604;-59
2022/07/08 09:30:30;;;;;;;0.00;0.00;;;;;;;;;;5068454;28;20107;-60
2022/07/08 09:33:01;;;;;;;0.00;0.00;;;;;;;;;;5069092;28;20107;-60
2022/07/08 09:35:35;;;;;;;0.00;0.00;;;;;;;;;;5068091;28;20107;-60
2022/07/08 09:38:11;;;;;;;0.00;0.00;;;;;;;;;;5069307;28;20045;-60
2022/07/08 09:40:37;;;;;;;0.00;0.00;;;;;;;;;;5067241;28;20114;-59
2022/07/08 09:43:11;;;;;;;0.00;0.00;;;;;;;;;;5068902;28;20053;-59
2022/07/08 09:45:37;;;;;;;0.00;0.00;;;;;;;;;;5068631;28;20558;-59
2022/07/08 09:48:08;;;;;;;0.00;0.00;;;;;;;;;;5068024;28;20061;-59
2022/07/08 09:50:39;;;;;;;0.22;0.08;;;;;;;;;;5069059;28;20057;-60
2022/07/08 09:53:27;;;;;;;0.00;0.00;;;;;;;;;;5068882;28;20140;-60
2022/07/08 09:55:54;;;;;;;0.00;0.00;;;;;;;;;;5068411;28;20067;-60
2022/07/08 09:58:25;;;;;;;0.00;0.00;;;;;;;;;;5067542;28;20081;-60
2022/07/08 10:00:52;;;;;;;0.00;0.00;;;;;;;;;;5068902;28;20288;-60
2022/07/08 10:03:20;;;;;;;0.00;0.00;;;;;;;;;;5067889;28;20053;-59
2022/07/08 10:05:46;;;;;;;0.00;0.00;;;;;;;;;;5067720;28;20060;-59
2022/07/08 10:08:13;;;;;;;0.00;0.00;;;;;;;;;;5068501;28;20338;-59
2022/07/08 10:10:41;;;;;;;0.00;0.00;;;;;;;;;;5068186;28;20115;-59
2022/07/08 10:13:07;;;;;;;0.00;0.00;;;;;;;;;;5068499;28;20052;-60
2022/07/08 10:15:35;;;;;;;0.00;0.00;;;;;;;;;;5068181;28;20056;-60
2022/07/08 10:18:07;;;;;;;0.00;0.00;;;;;;;;;;5067863;28;20081;-60
2022/07/08 10:20:35;;;;;;;0.00;0.00;;;;;;;;;;5087170;28;20592;-59
2022/07/08 10:23:14;;;;;;;0.00;0.00;;;;;;;;;;5088923;28;20053;-59
2022/07/08 10:25:44;;;;;;;0.00;0.00;;;;;;;;;;5090545;28;20052;-59
2022/07/08 10:28:11;;;;;;;0.00;0.00;;;;;;;;;;5082073;28;20551;-59
2022/07/08 10:30:43;;;;;;;0.00;0.00;;;;;;;;;;5071367;28;20095;-60
2022/07/08 10:33:10;;;;;;;0.00;0.00;;;;;;;;;;5071986;28;20099;-60
2022/07/08 10:35:56;;;;;;;0.00;0.00;;;;;;;;;;5071724;28;20083;-59
2022/07/08 10:38:43;;;;;;;0.00;0.00;;;;;;;;;;5072413;28;20115;-59
2022/07/08 10:41:11;;;;;;;0.00;0.00;;;;;;;;;;5070670;28;20104;-58
2022/07/08 10:43:38;;;;;;;0.00;0.00;;;;;;;;;;5071655;28;20045;-58
2022/07/08 10:46:10;;;;;;;0.00;0.00;;;;;;;;;;5071821;28;20053;-58
2022/07/08 10:48:39;;;;;;;0.00;0.00;;;;;;;;;;5081976;28;20063;-57
2022/07/08 10:51:06;;;;;;;0.00;0.00;;;;;;;;;;5075805;28;20111;-58
2022/07/08 10:53:52;;;;;;;0.00;0.00;;;;;;;;;;5071335;28;20083;-61
2022/07/08 10:56:37;;;;;;;0.00;0.00;;;;;;;;;;5070093;28;20053;-60
2022/07/08 10:59:19;;;;;;;0.00;0.00;;;;;;;;;;5084691;28;20048;-57
2022/07/08 11:01:52;;;;;;;0.00;0.00;;;;;;;;;;5078038;28;20515;-57
2022/07/08 11:04:39;;;;;;;0.00;0.00;;;;;;;;;;5077109;28;20053;-58
2022/07/08 11:07:14;;;;;;;0.00;0.00;;;;;;;;;;5084545;28;20052;-58
2022/07/08 11:09:41;;;;;;;0.00;0.00;;;;;;;;;;5090388;28;20515;-57
2022/07/08 11:12:14;;;;;;;0.00;0.00;;;;;;;;;;5073374;28;20081;-55
2022/07/08 11:14:42;;;;;;;0.00;0.00;;;;;;;;;;5070577;28;20608;-57
2022/07/08 11:17:13;;;;;;;0.00;0.00;;;;;;;;;;5087125;28;20089;-57
2022/07/08 11:19:45;;;;;;;0.00;0.00;;;;;;;;;;5090697;28;20052;-56
2022/07/08 11:22:12;;;;;;;0.00;0.00;;;;;;;;;;5072795;28;20095;-57
2022/07/08 11:24:49;;;;;;;0.00;0.00;;;;;;;;;;5070019;28;20578;-57
2022/07/08 11:27:16;;;;;;;0.00;0.00;;;;;;;;;;5082307;28;20129;-58
2022/07/08 11:29:47;;;;;;;0.00;0.00;;;;;;;;;;5070352;28;20509;-58
2022/07/08 11:32:20;;;;;;;0.00;0.00;;;;;;;;;;5079446;28;20514;-58
2022/07/08 11:34:47;;;;;;;0.00;0.00;;;;;;;;;;5090705;28;20049;-58
2022/07/08 11:37:13;;;;;;;0.00;0.00;;;;;;;;;;5090468;28;20098;-58
2022/07/08 11:39:41;;;;;;;0.00;0.00;;;;;;;;;;5090168;28;20053;-57
2022/07/08 11:42:09;;;;;;;0.00;0.00;;;;;;;;;;5094505;28;20052;-59
2022/07/08 11:44:35;;;;;;;0.00;0.00;;;;;;;;;;5099325;27;20056;-59
2022/07/08 11:47:02;;;;;;;0.00;0.00;;;;;;;;;;5090647;28;20099;-58
2022/07/08 11:49:29;;;;;;;0.00;0.00;;;;;;;;;;5090606;28;20052;-58
2022/07/08 11:51:56;;;;;;;0.00;0.00;;;;;;;;;;5090419;28;20515;-59
2022/07/08 11:54:24;;;;;;;0.00;0.00;;;;;;;;;;5090130;28;20135;-59
2022/07/08 11:56:55;;;;;;;0.00;0.00;;;;;;;;;;5090585;28;20102;-59
2022/07/08 11:59:22;;;;;;;0.00;0.00;;;;;;;;;;5089854;28;20056;-59
2022/07/08 12:01:49;;;;;;;0.00;0.00;;;;;;;;;;5090184;28;20567;-58
2022/07/08 12:04:16;;;;;;;0.00;0.00;;;;;;;;;;5090666;28;20271;-59
2022/07/08 12:07:01;;;;;;;0.00;0.00;;;;;;;;;;5090483;28;20056;-59
2022/07/08 12:09:29;;;;;;;0.00;0.00;;;;;;;;;;5089971;28;20506;-58
2022/07/08 12:11:56;;;;;;;;;;;;;;;;;;5089545;28;20080;-57
2022/07/08 12:14:22;;;;;;;0.00;0.00;;;;;;;;;;5089592;28;44764;-58
2022/07/08 12:16:55;;;;;;;0.00;0.00;;;;;;;;;;5090079;28;20053;-57
2022/07/08 12:19:34;;;;;;;0.05;0.05;;;;;;;;;;5089601;28;20511;-57
2022/07/08 12:22:01;;;;;;;0.00;0.00;;;;;;;;;;5089478;28;20084;-57
2022/07/08 12:24:31;;;;;;;0.00;0.00;;;;;;;;;;5090497;28;20112;-57
2022/07/08 12:26:59;;;;;;;0.00;0.00;;;;;;;;;;5105688;28;20620;-57
2022/07/08 12:29:26;;;;;;;0.00;0.00;;;;;;;;;;5109240;27;20572;-56
2022/07/08 12:31:53;;;;;;;0.03;0.03;;;;;;;;;;5110585;27;20110;-56
2022/07/08 12:34:21;;;;;;;0.00;0.00;;;;;;;;;;5109795;27;20135;-56
2022/07/08 12:36:48;;;;;;;0.00;0.00;;;;;;;;;;5109841;27;20146;-57
2022/07/08 12:39:15;;;;;;;0.00;0.00;;;;;;;;;;5110776;27;20101;-56
2022/07/08 12:41:45;;;;;;;0.00;0.00;;;;;;;;;;5109901;28;20056;-55
2022/07/08 12:44:41;;;;;;;0.00;0.00;;;;;;;;;;5110544;27;20494;-56
2022/07/08 12:47:09;;;;;;;0.00;0.00;;;;;;;;;;5068756;28;20088;-57
2022/07/08 12:49:35;;;;;;;;;;;;;;;;;;5068154;28;20515;-56
2022/07/08 12:52:02;;;;;;;0.00;0.00;;;;;;;;;;5079381;28;45057;-57
2022/07/08 12:54:29;;;;;;;0.00;0.00;;;;;;;;;;5082069;28;20056;-57
2022/07/08 12:56:56;;;;;;;0.00;0.00;;;;;;;;;;5074709;28;20052;-57
2022/07/08 12:59:23;;;;;;;0.00;0.00;;;;;;;;;;5082663;28;20518;-56
2022/07/08 13:01:50;;;;;;;0.00;0.00;;;;;;;;;;5094703;28;20048;-59
2022/07/08 13:04:16;;;;;;;0.00;0.00;;;;;;;;;;5089317;28;20182;-59
2022/07/08 13:06:43;;;;;;;0.00;0.00;;;;;;;;;;5068790;28;20049;-60
2022/07/08 13:09:11;;;;;;;0.00;0.00;;;;;;;;;;5081157;28;20535;-59
2022/07/08 13:11:38;;;;;;;0.00;0.00;;;;;;;;;;5075394;28;20063;-59
2022/07/08 13:14:04;;;;;;;0.00;0.00;;;;;;;;;;5072270;28;20049;-58
2022/07/08 13:16:31;;;;;;;0.00;0.00;;;;;;;;;;5092442;28;20129;-58
2022/07/08 13:18:58;;;;;;;0.00;0.00;;;;;;;;;;5105391;27;20052;-59
2022/07/08 13:21:24;;;;;;;0.00;0.00;;;;;;;;;;5089045;28;20057;-60
2022/07/08 13:23:50;;;;;;;0.00;0.00;;;;;;;;;;5089106;28;20095;-60
2022/07/08 13:26:17;;;;;;;0.20;0.10;;;;;;;;;;5080917;28;20110;-60
2022/07/08 13:28:43;;;;;;;0.00;0.00;;;;;;;;;;5087217;28;20110;-60
2022/07/08 13:31:10;;;;;;;0.10;0.10;;;;;;;;;;5069227;28;20057;-60
2022/07/08 13:33:36;;;;;;;0.00;0.00;;;;;;;;;;5076374;28;20061;-60
2022/07/08 13:36:03;;;;;;;0.00;0.00;;;;;;;;;;5071545;28;20102;-60
2022/07/08 13:38:29;;;;;;;0.00;0.00;;;;;;;;;;5088413;28;20564;-60
2022/07/08 13:40:55;;;;;;;0.00;0.00;;;;;;;;;;5088308;28;20118;-60
2022/07/08 13:43:22;;;;;;;0.00;0.00;;;;;;;;;;5087804;28;20056;-60
2022/07/08 13:45:48;;;;;;;0.00;0.00;;;;;;;;;;5069057;28;20110;-60
2022/07/08 13:48:16;;;;;;;0.15;0.10;;;;;;;;;;5068160;28;20111;-60
2022/07/08 13:50:42;;;;;;;0.00;0.00;;;;;;;;;;5067460;28;20115;-60
2022/07/08 13:53:09;;;;;;;0.55;0.47;;;;;;;;;;5068942;28;20099;-60
2022/07/08 13:55:35;;;;;;;0.00;0.00;;;;;;;;;;5068119;28;20400;-60
2022/07/08 13:58:01;;;;;;;0.00;0.00;;;;;;;;;;5086717;28;20053;-60
2022/07/08 14:00:28;;;;;;;0.38;0.17;;;;;;;;;;5080653;28;20053;-60
2022/07/08 14:02:56;;;;;;;0.00;0.00;;;;;;;;;;5074789;28;20140;-60
2022/07/08 14:05:22;;;;;;;0.25;0.10;;;;;;;;;;5078598;28;20064;-60
2022/07/08 14:07:49;;;;;;;0.00;0.00;;;;;;;;;;5084664;28;20957;-60
2022/07/08 14:10:15;;;;;;;0.20;0.10;;;;;;;;;;5074975;28;20581;-60
2022/07/08 14:12:41;;;;;;;0.00;0.00;;;;;;;;;;5091308;28;20434;-60
2022/07/08 14:15:08;;;;;;;0.00;0.00;;;;;;;;;;5088756;28;20113;-60
2022/07/08 14:17:41;;;;;;;0.00;0.00;;;;;;;;;;5085560;28;20115;-60
2022/07/08 14:20:08;;;;;;;0.00;0.00;;;;;;;;;;5071598;28;20052;-60
2022/07/08 14:22:34;;;;;;;0.00;0.00;;;;;;;;;;5070729;28;20057;-60
2022/07/08 14:25:01;;;;;;;0.00;0.00;;;;;;;;;;5075145;28;20099;-60
2022/07/08 14:27:27;;;;;;;0.00;0.00;;;;;;;;;;5089405;28;20107;-60
2022/07/08 14:29:54;;;;;;;0.00;0.00;;;;;;;;;;5072123;28;20080;-60
2022/07/08 14:32:20;;;;;;;0.00;0.00;;;;;;;;;;5071243;28;20134;-60
2022/07/08 14:34:46;;;;;;;0.00;0.00;;;;;;;;;;5087332;28;20080;-60
2022/07/08 14:37:13;;;;;;;0.00;0.00;;;;;;;;;;5071225;28;20530;-61
2022/07/08 14:39:39;;;;;;;0.00;0.00;;;;;;;;;;5070168;28;20053;-59
2022/07/08 14:42:05;;;;;;;0.00;0.00;;;;;;;;;;5070366;28;20911;-60
2022/07/08 14:44:32;;;;;;;0.00;0.00;;;;;;;;;;5070974;28;20049;-59
2022/07/08 14:46:58;;;;;;;0.00;0.00;;;;;;;;;;5070289;28;20057;-59
2022/07/08 14:49:24;;;;;;;0.00;0.00;;;;;;;;;;5069800;28;20111;-60
2022/07/08 14:51:51;;;;;;;0.00;0.00;;;;;;;;;;5069401;28;20057;-60